createdAt,value
2018-02-19T00:01:40.654Z,34.57
2018-02-19T00:04:43.139Z,30.67
2018-02-19T00:07:45.113Z,28.97
2018-02-19T00:10:47.051Z,30.73
2018-02-19T00:13:49.029Z,28.77
2018-02-19T00:16:50.970Z,29.37
2018-02-19T00:19:52.960Z,26.57
2018-02-19T00:22:54.950Z,24.50
2018-02-19T00:25:56.916Z,35.50
2018-02-19T00:28:59.067Z,36.90
2018-02-19T00:32:01.023Z,36.70
2018-02-19T00:35:03.017Z,32.70
2018-02-19T00:38:04.976Z,30.20
2018-02-19T00:41:06.943Z,30.47
2018-02-19T00:44:08.906Z,26.20
2018-02-19T00:47:10.850Z,27.63
2018-02-19T00:50:12.831Z,29.50
2018-02-19T00:53:14.813Z,25.73
2018-02-19T00:56:16.778Z,28.03
2018-02-19T00:59:18.755Z,24.60
2018-02-19T01:02:20.691Z,27.60
2018-02-19T01:05:22.725Z,25.07
2018-02-19T01:08:24.750Z,25.60
2018-02-19T01:11:26.699Z,22.73
2018-02-19T01:14:28.682Z,25.17
2018-02-19T01:17:30.632Z,21.83
2018-02-19T01:20:32.586Z,21.97
2018-02-19T01:23:34.578Z,26.03
2018-02-19T01:26:36.511Z,22.50
2018-02-19T01:29:38.506Z,24.53
2018-02-19T01:32:40.494Z,21.83
2018-02-19T01:35:42.518Z,24.43
2018-02-19T01:38:44.486Z,21.93
2018-02-19T01:41:46.466Z,23.87
2018-02-19T01:44:48.448Z,22.77
2018-02-19T01:47:50.415Z,25.87
2018-02-19T01:50:52.369Z,24.17
2018-02-19T01:53:54.425Z,24.67
2018-02-19T01:56:56.360Z,24.40
2018-02-19T01:59:58.355Z,25.13
2018-02-19T02:03:00.342Z,22.20
2018-02-19T02:06:02.308Z,21.17
2018-02-19T02:09:04.270Z,21.20
2018-02-19T02:12:06.237Z,21.90
2018-02-19T02:15:08.207Z,23.20
2018-02-19T02:18:10.177Z,23.43
2018-02-19T02:21:12.193Z,20.10
2018-02-19T02:24:14.085Z,19.77
2018-02-19T02:27:16.069Z,21.50
2018-02-19T02:30:18.030Z,27.60
2018-02-19T02:33:19.996Z,28.77
2018-02-19T02:36:21.967Z,26.27
2018-02-19T02:39:24.000Z,25.83
2018-02-19T02:42:25.999Z,24.37
2018-02-19T02:45:28.084Z,24.23
2018-02-19T02:48:30.025Z,21.93
2018-02-19T02:51:32.035Z,22.17
2018-02-19T02:54:34.071Z,22.30
2018-02-19T02:57:36.036Z,21.33
2018-02-19T03:00:38.027Z,22.07
2018-02-19T03:03:39.959Z,24.43
2018-02-19T03:06:42.004Z,22.23
2018-02-19T03:09:43.992Z,23.40
2018-02-19T03:12:46.030Z,22.80
2018-02-19T03:15:48.021Z,22.03
2018-02-19T03:18:50.026Z,26.03
2018-02-19T03:21:51.979Z,23.90
2018-02-19T03:24:53.997Z,23.27
2018-02-19T03:27:56.014Z,24.83
2018-02-19T03:30:57.975Z,25.40
2018-02-19T03:33:59.975Z,26.67
2018-02-19T03:37:02.037Z,24.27
2018-02-19T03:40:03.975Z,25.87
2018-02-19T03:43:06.162Z,28.47
2018-02-19T03:46:08.117Z,26.50
2018-02-19T03:49:10.084Z,30.27
2018-02-19T03:52:12.259Z,28.67
2018-02-19T03:55:14.219Z,30.03
2018-02-19T03:58:16.177Z,28.60
2018-02-19T04:01:18.144Z,26.43
2018-02-19T04:04:20.115Z,30.63
2018-02-19T04:07:22.084Z,29.20
2018-02-19T04:10:24.059Z,32.60
2018-02-19T04:13:26.007Z,29.20
2018-02-19T04:16:27.973Z,31.33
2018-02-19T04:19:29.967Z,27.77
2018-02-19T04:22:31.934Z,35.37
2018-02-19T04:25:33.854Z,25.13
2018-02-19T04:28:35.858Z,30.73
2018-02-19T04:31:37.830Z,32.53
2018-02-19T04:34:39.783Z,31.07
2018-02-19T04:37:41.791Z,32.37
2018-02-19T04:40:43.824Z,30.50
2018-02-19T04:43:45.811Z,29.37
2018-02-19T04:46:47.808Z,32.40
2018-02-19T04:49:49.827Z,35.13
2018-02-19T04:52:51.806Z,32.20
2018-02-19T04:55:53.943Z,30.57
2018-02-19T04:58:55.945Z,33.70
2018-02-19T05:01:57.897Z,32.57
2018-02-19T05:04:59.882Z,30.83
2018-02-19T05:08:02.038Z,32.63
2018-02-19T05:11:04.021Z,32.23
2018-02-19T05:14:05.980Z,35.03
2018-02-19T05:17:07.972Z,31.27
2018-02-19T05:20:10.001Z,32.37
2018-02-19T05:23:11.982Z,35.47
2018-02-19T05:26:13.920Z,29.43
2018-02-19T05:29:15.901Z,33.87
2018-02-19T05:32:17.873Z,35.07
2018-02-19T05:35:19.848Z,32.97
2018-02-19T05:38:21.775Z,33.23
2018-02-19T05:41:23.799Z,33.13
2018-02-19T05:44:25.847Z,36.97
2018-02-19T05:47:27.802Z,33.97
2018-02-19T05:50:29.765Z,31.37
2018-02-19T05:53:31.763Z,34.47
2018-02-19T05:56:33.815Z,34.10
2018-02-19T05:59:35.817Z,32.77
2018-02-19T06:02:37.716Z,32.50
2018-02-19T06:05:39.705Z,35.40
2018-02-19T06:08:41.662Z,34.53
2018-02-19T06:11:43.714Z,36.03
2018-02-19T06:14:45.674Z,35.83
2018-02-19T06:17:47.616Z,33.83
2018-02-19T06:20:49.622Z,35.40
2018-02-19T06:23:51.623Z,35.80
2018-02-19T06:26:53.587Z,37.30
2018-02-19T06:29:55.593Z,36.77
2018-02-19T06:32:57.621Z,32.03
2018-02-19T06:35:59.661Z,36.57
2018-02-19T06:39:01.756Z,29.60
2018-02-19T06:42:03.711Z,34.17
2018-02-19T06:45:05.689Z,38.43
2018-02-19T06:48:07.638Z,32.70
2018-02-19T06:51:09.754Z,33.10
2018-02-19T06:54:11.764Z,33.20
2018-02-19T06:57:13.733Z,34.50
2018-02-19T07:00:15.733Z,34.93
2018-02-19T07:03:17.660Z,34.50
2018-02-19T07:06:19.662Z,34.27
2018-02-19T07:09:21.617Z,35.50
2018-02-19T07:12:23.558Z,35.10
2018-02-19T07:15:25.672Z,35.30
2018-02-19T07:18:27.732Z,33.83
2018-02-19T07:21:29.702Z,31.17
2018-02-19T07:24:31.753Z,33.63
2018-02-19T07:27:33.720Z,36.53
2018-02-19T07:30:35.698Z,29.77
2018-02-19T07:33:37.667Z,34.30
2018-02-19T07:36:39.752Z,36.03
2018-02-19T07:39:41.812Z,29.90
2018-02-19T07:42:43.758Z,28.57
2018-02-19T07:45:45.770Z,32.10
2018-02-19T07:48:47.887Z,33.87
2018-02-19T07:51:49.947Z,30.27
2018-02-19T07:54:52.231Z,36.03
2018-02-19T07:57:54.195Z,35.40
2018-02-19T08:00:56.252Z,32.40
2018-02-19T08:03:58.230Z,32.43
2018-02-19T08:07:00.222Z,33.43
2018-02-19T08:10:02.141Z,34.73
2018-02-19T08:13:04.063Z,35.53
2018-02-19T08:16:06.092Z,33.67
2018-02-19T08:19:08.064Z,30.13
2018-02-19T08:22:10.130Z,29.70
2018-02-19T08:25:12.124Z,31.50
2018-02-19T08:28:14.159Z,32.83
2018-02-19T08:31:16.172Z,32.23
2018-02-19T08:34:18.211Z,30.13
2018-02-19T08:37:20.146Z,35.20
2018-02-19T08:40:22.089Z,31.13
2018-02-19T08:43:24.100Z,34.90
2018-02-19T08:46:26.203Z,30.37
2018-02-19T08:49:28.225Z,30.67
2018-02-19T08:52:30.187Z,29.33
2018-02-19T08:55:32.190Z,29.33
2018-02-19T08:58:34.231Z,30.63
2018-02-19T09:01:36.226Z,31.70
2018-02-19T09:04:38.166Z,27.60
2018-02-19T09:07:40.143Z,26.20
2018-02-19T09:10:42.206Z,30.13
2018-02-19T09:13:44.172Z,30.90
2018-02-19T09:16:46.155Z,29.50
2018-02-19T09:19:48.110Z,31.47
2018-02-19T09:22:50.085Z,29.63
2018-02-19T09:25:52.051Z,32.37
2018-02-19T09:28:54.054Z,32.47
2018-02-19T09:31:56.006Z,30.03
2018-02-19T09:34:58.041Z,33.07
2018-02-19T09:38:00.026Z,33.20
2018-02-19T09:41:01.962Z,31.57
2018-02-19T09:44:03.939Z,31.43
2018-02-19T09:47:05.870Z,34.17
2018-02-19T09:50:07.873Z,29.87
2018-02-19T09:53:09.815Z,36.13
2018-02-19T09:56:11.821Z,36.00
2018-02-19T09:59:13.769Z,32.13
2018-02-19T10:02:15.747Z,32.97
2018-02-19T10:05:17.692Z,31.50
2018-02-19T10:08:19.687Z,27.13
2018-02-19T10:11:21.636Z,32.03
2018-02-19T10:14:23.631Z,28.97
2018-02-19T10:17:25.599Z,28.37
2018-02-19T10:20:27.616Z,28.97
2018-02-19T10:23:29.610Z,29.93
2018-02-19T10:26:31.587Z,36.37
2018-02-19T10:29:33.522Z,29.80
2018-02-19T10:32:35.535Z,27.53
2018-02-19T10:35:37.557Z,28.13
2018-02-19T10:38:39.571Z,28.13
2018-02-19T10:41:41.523Z,23.00
2018-02-19T10:44:43.528Z,26.87
2018-02-19T10:47:45.418Z,23.60
2018-02-19T10:50:47.434Z,25.83
2018-02-19T10:53:49.462Z,23.37
2018-02-19T10:56:51.400Z,21.90
2018-02-19T10:59:53.408Z,28.57
2018-02-19T11:02:55.482Z,23.27
2018-02-19T11:05:57.432Z,21.77
2018-02-19T11:08:59.381Z,23.50
2018-02-19T11:12:01.368Z,25.57
2018-02-19T11:15:03.326Z,25.80
2018-02-19T11:18:05.332Z,24.07
2018-02-19T11:21:07.307Z,25.77
2018-02-19T11:24:09.284Z,24.77
2018-02-19T11:27:11.303Z,23.40
2018-02-19T11:30:13.414Z,26.97
2018-02-19T11:33:15.418Z,25.90
2018-02-19T11:36:17.339Z,24.07
2018-02-19T11:39:41.461Z,27.57
2018-02-19T11:42:44.176Z,27.10
2018-02-19T11:45:46.158Z,26.47
2018-02-19T11:48:48.114Z,23.47
2018-02-19T11:51:50.962Z,25.40
2018-02-19T11:54:52.950Z,22.87
2018-02-19T11:57:55.040Z,23.03
2018-02-19T12:00:56.981Z,20.63
2018-02-19T12:03:58.975Z,22.53
2018-02-19T12:07:00.942Z,20.53
2018-02-19T12:10:02.906Z,24.10
2018-02-19T12:13:04.880Z,20.67
2018-02-19T12:16:06.841Z,21.10
2018-02-19T12:19:08.782Z,21.37
2018-02-19T12:22:10.759Z,22.73
2018-02-19T12:25:12.734Z,19.30
2018-02-19T12:28:14.729Z,21.93
2018-02-19T12:31:16.746Z,21.00
2018-02-19T12:34:18.739Z,20.10
2018-02-19T12:37:20.703Z,19.97
2018-02-19T12:40:22.670Z,21.50
2018-02-19T12:43:24.644Z,21.00
2018-02-19T12:49:58.379Z,23.70
2018-02-19T12:53:00.485Z,19.97
2018-02-19T12:56:02.478Z,19.23
2018-02-19T12:59:04.691Z,15.63
2018-02-19T13:02:06.639Z,18.97
2018-02-19T13:05:10.358Z,18.30
2018-02-19T13:08:12.350Z,19.90
2018-02-19T13:11:14.280Z,21.25
2018-02-19T13:14:16.259Z,20.85
2018-02-19T13:17:18.211Z,21.90
2018-02-19T13:20:20.184Z,21.55
2018-02-19T13:23:22.140Z,23.05
2018-02-19T13:26:24.093Z,28.12
2018-02-19T13:29:27.305Z,19.82
2018-02-19T13:32:29.298Z,22.42
2018-02-19T13:35:31.312Z,23.77
2018-02-19T13:38:33.325Z,25.05
2018-02-19T13:41:35.266Z,23.38
2018-02-19T13:44:37.350Z,21.00
2018-02-19T13:47:39.317Z,24.70
2018-02-19T13:50:41.278Z,24.70
2018-02-19T13:53:43.263Z,25.43
2018-02-19T13:56:45.210Z,25.60
2018-02-19T13:59:47.166Z,28.15
2018-02-19T14:02:49.145Z,27.90
2018-02-19T14:05:51.115Z,25.77
2018-02-19T14:08:53.097Z,24.82
2018-02-19T14:11:55.461Z,25.23
2018-02-19T14:14:57.410Z,26.95
2018-02-19T14:17:59.409Z,25.45
2018-02-19T14:21:01.434Z,23.05
2018-02-19T14:24:03.444Z,23.10
2018-02-19T14:27:05.377Z,26.93
2018-02-19T14:30:07.378Z,23.65
2018-02-19T14:33:09.319Z,25.48
2018-02-19T14:36:11.295Z,24.15
2018-02-19T14:39:13.224Z,25.12
2018-02-19T14:42:15.216Z,24.18
2018-02-19T14:45:17.201Z,29.18
2018-02-19T14:48:19.250Z,22.93
2018-02-19T14:51:21.237Z,24.87
2018-02-19T14:54:23.224Z,25.97
2018-02-19T14:57:26.299Z,25.77
2018-02-19T15:00:28.642Z,27.30
2018-02-19T15:03:30.631Z,22.13
2018-02-19T15:06:32.592Z,24.72
2018-02-19T15:09:34.599Z,24.07
2018-02-19T15:12:36.622Z,26.67
2018-02-19T15:15:38.579Z,24.77
2018-02-19T15:18:40.562Z,26.07
2018-02-19T15:21:42.518Z,24.43
2018-02-19T15:24:44.500Z,28.55
2018-02-19T15:27:46.445Z,29.72
2018-02-19T15:30:48.448Z,26.35
2018-02-19T15:33:50.372Z,23.85
2018-02-19T15:36:52.296Z,25.85
2018-02-19T15:39:54.338Z,23.85
2018-02-19T15:42:57.487Z,24.80
2018-02-19T15:45:59.494Z,28.40
2018-02-19T15:49:01.453Z,25.77
2018-02-19T15:52:03.445Z,27.70
2018-02-19T15:55:05.353Z,24.43
2018-02-19T15:58:07.360Z,26.37
2018-02-19T16:01:09.300Z,28.23
2018-02-19T16:04:11.294Z,24.05
2018-02-19T16:07:13.347Z,26.40
2018-02-19T16:10:15.329Z,23.80
2018-02-19T16:13:17.438Z,26.55
2018-02-19T16:16:19.520Z,25.20
2018-02-19T16:19:21.543Z,25.70
2018-02-19T16:22:23.594Z,28.38
2018-02-19T16:25:25.657Z,29.00
2018-02-19T16:28:27.714Z,28.87
2018-02-19T16:31:29.701Z,29.35
2018-02-19T16:34:31.662Z,29.12
2018-02-19T16:37:33.621Z,27.37
2018-02-19T16:40:35.626Z,26.00
2018-02-19T16:43:37.670Z,25.30
2018-02-19T16:46:39.855Z,24.80
2018-02-19T16:49:41.905Z,24.37
2018-02-19T16:52:43.863Z,35.10
2018-02-19T16:55:45.812Z,25.95
2018-02-19T16:58:47.739Z,28.10
2018-02-19T17:01:50.161Z,29.72
2018-02-19T17:04:52.213Z,37.53
2018-02-19T17:07:54.154Z,30.27
2018-02-19T17:10:56.650Z,27.55
2018-02-19T17:13:58.633Z,29.57
2018-02-19T17:17:00.610Z,24.67
2018-02-19T17:20:02.586Z,24.23
2018-02-19T17:23:04.564Z,25.12
2018-02-19T17:26:06.537Z,28.57
2018-02-19T17:29:08.474Z,26.75
2018-02-19T17:32:10.553Z,26.85
2018-02-19T17:35:12.569Z,29.30
2018-02-19T17:38:15.007Z,35.10
2018-02-19T17:41:16.941Z,27.03
2018-02-19T17:44:18.930Z,26.90
2018-02-19T17:47:20.879Z,26.82
2018-02-19T17:50:22.885Z,29.55
2018-02-19T17:53:24.781Z,25.80
2018-02-19T17:56:28.249Z,26.60
2018-02-19T17:59:30.177Z,24.80
2018-02-19T18:02:32.161Z,27.13
2018-02-19T18:05:34.129Z,25.93
2018-02-19T18:08:36.089Z,26.33
2018-02-19T18:11:38.054Z,24.30
2018-02-19T18:14:40.017Z,24.50
2018-02-19T18:17:42.015Z,27.98
2018-02-19T18:20:44.012Z,27.27
2018-02-19T18:23:46.004Z,28.20
2018-02-19T18:26:47.966Z,28.53
2018-02-19T18:29:49.931Z,29.80
2018-02-19T18:32:51.925Z,30.77
2018-02-19T18:35:54.327Z,27.93
2018-02-19T18:38:57.467Z,28.07
2018-02-19T18:41:59.458Z,28.67
2018-02-19T18:45:01.429Z,28.70
2018-02-19T18:48:03.510Z,29.80
2018-02-19T18:51:05.641Z,29.20
2018-02-19T18:54:07.614Z,30.23
2018-02-19T18:57:09.679Z,27.55
2018-02-19T19:00:11.647Z,28.80
2018-02-19T19:03:13.750Z,25.93
2018-02-19T19:06:15.685Z,27.57
2018-02-19T19:09:17.655Z,29.13
2018-02-19T19:12:19.643Z,27.23
2018-02-19T19:15:21.649Z,27.97
2018-02-19T19:18:23.562Z,28.77
2018-02-19T19:21:26.671Z,31.73
2018-02-19T19:24:28.625Z,34.13
2018-02-19T19:27:30.709Z,29.67
2018-02-19T19:30:32.665Z,29.53
2018-02-19T19:33:34.680Z,29.03
2018-02-19T19:36:36.715Z,30.97
2018-02-19T19:39:38.679Z,30.23
2018-02-19T19:42:40.614Z,28.63
2018-02-19T19:45:42.566Z,24.80
2018-02-19T19:48:44.577Z,27.37
2018-02-19T19:51:46.526Z,28.33
2018-02-19T19:54:48.520Z,27.33
2018-02-19T19:57:50.884Z,29.90
2018-02-19T20:00:52.814Z,25.83
2018-02-19T20:03:54.782Z,31.77
2018-02-19T20:06:57.449Z,28.97
2018-02-19T20:12:41.915Z,28.37
2018-02-19T20:15:45.386Z,28.23
2018-02-19T20:18:48.614Z,26.50
2018-02-19T20:21:51.925Z,25.70
2018-02-19T20:24:55.251Z,27.77
2018-02-19T20:27:58.420Z,28.90
2018-02-19T20:31:01.637Z,30.90
2018-02-19T20:34:04.934Z,27.87
2018-02-19T20:37:08.213Z,28.47
2018-02-19T20:40:11.415Z,30.97
2018-02-19T20:43:14.662Z,29.00
2018-02-19T20:46:17.968Z,25.87
2018-02-19T20:49:21.124Z,27.40
2018-02-19T20:52:24.356Z,26.52
2018-02-19T20:55:28.674Z,31.00
2018-02-19T20:58:32.007Z,30.53
2018-02-19T21:01:35.211Z,28.73
2018-02-19T21:04:38.401Z,27.17
2018-02-19T21:07:41.605Z,29.00
2018-02-19T21:10:44.860Z,30.87
2018-02-19T21:13:48.055Z,27.80
2018-02-19T21:16:51.280Z,29.10
2018-02-19T21:19:54.451Z,28.02
2018-02-19T21:22:58.910Z,27.27
2018-02-19T21:26:02.258Z,27.50
2018-02-19T21:29:05.572Z,27.10
2018-02-19T21:32:08.812Z,24.90
2018-02-19T21:35:12.058Z,24.13
2018-02-19T21:38:15.360Z,27.77
2018-02-19T21:41:18.539Z,26.93
2018-02-19T21:44:21.865Z,28.75
2018-02-19T21:47:25.303Z,28.13
2018-02-19T21:50:28.535Z,27.22
2018-02-19T21:53:31.850Z,26.53
2018-02-19T21:56:35.021Z,28.33
2018-02-19T21:59:38.882Z,27.93
2018-02-19T22:02:42.092Z,29.97
2018-02-19T22:05:45.649Z,29.40
2018-02-19T22:08:48.933Z,30.70
2018-02-19T22:11:52.246Z,30.33
2018-02-19T22:14:55.538Z,30.53
2018-02-19T22:17:58.826Z,33.15
2018-02-19T22:21:02.139Z,46.50
2018-02-19T22:24:05.443Z,39.27
2018-02-19T22:27:08.759Z,33.20
2018-02-19T22:30:12.031Z,30.87
2018-02-19T22:33:15.340Z,30.73
2018-02-19T22:36:18.506Z,37.57
2018-02-19T22:39:21.757Z,35.53
2018-02-19T22:42:25.026Z,31.97
2018-02-19T22:45:28.305Z,27.90
2018-02-19T22:48:31.599Z,30.37
2018-02-19T22:51:34.920Z,27.63
2018-02-19T22:54:38.209Z,30.80
2018-02-19T22:57:41.503Z,26.53
2018-02-19T23:00:44.792Z,31.90
2018-02-19T23:03:48.079Z,27.30
2018-02-19T23:06:51.310Z,27.10
2018-02-19T23:09:54.510Z,25.27
2018-02-19T23:12:57.770Z,27.85
2018-02-19T23:16:01.034Z,26.30
2018-02-19T23:19:04.275Z,34.92
2018-02-19T23:22:07.568Z,37.60
2018-02-19T23:25:10.860Z,39.27
2018-02-19T23:28:14.154Z,38.60
2018-02-19T23:31:17.617Z,29.00
2018-02-19T23:34:20.863Z,28.40
2018-02-19T23:37:24.226Z,29.40
2018-02-19T23:40:27.496Z,31.03
2018-02-19T23:43:30.773Z,27.63
2018-02-19T23:46:34.064Z,25.23
2018-02-19T23:49:37.344Z,30.73
2018-02-19T23:52:40.612Z,27.03
2018-02-19T23:55:43.945Z,26.50
2018-02-19T23:58:47.251Z,30.53
